ENA weather

Kenai Municipal Airport
Kenai, Alaska, United States

Public forecast

Using degrees Fahrenheit for public forecast. Weather courtesy of forecast.io.

METAR (pilot weather report)

Retrieved 2019/05/21 03:53 UTC (1 hour ago):

PAEN 210353Z 21008KT 10SM SCT048 BKN060 13/03 A2986

TAF (pilot weather forecast)

Forecast is more than 12 hours old.

Retrieved 2019/05/20 00:42 UTC (1 day ago):

TAF PAEN 202341Z 2100/2124 35008KT P6SM -SHRA BKN060 BKN080 FM210900 22007KT P6SM FEW010 SCT050 FM211800 22008KT P6SM SCT050